sensor_id;sensor_type;location;lat;lon;timestamp;pressure;altitude;pressure_sealevel;temperature;humidity
33496;BME280;19836;55.812;37.560;2023-02-28T00:03:33;100124.81;;;-5.70;72.79
33496;BME280;19836;55.812;37.560;2023-02-28T00:07:25;100129.41;;;-5.64;73.43
33496;BME280;19836;55.812;37.560;2023-02-28T00:14:36;100111.66;;;-5.51;73.09
33496;BME280;19836;55.812;37.560;2023-02-28T00:24:15;100110.97;;;-5.46;73.72
33496;BME280;19836;55.812;37.560;2023-02-28T00:27:07;100102.00;;;-5.53;73.27
33496;BME280;19836;55.812;37.560;2023-02-28T00:29:35;100109.88;;;-5.52;73.91
33496;BME280;19836;55.812;37.560;2023-02-28T00:33:06;100099.09;;;-5.61;73.27
33496;BME280;19836;55.812;37.560;2023-02-28T00:56:38;100081.88;;;-5.78;73.56
33496;BME280;19836;55.812;37.560;2023-02-28T01:00:14;100064.56;;;-5.76;74.13
33496;BME280;19836;55.812;37.560;2023-02-28T01:03:00;100059.34;;;-5.76;73.48
33496;BME280;19836;55.812;37.560;2023-02-28T01:06:37;100050.00;;;-5.71;73.96
33496;BME280;19836;55.812;37.560;2023-02-28T01:09:39;100040.97;;;-5.79;73.60
33496;BME280;19836;55.812;37.560;2023-02-28T01:13:02;100037.47;;;-5.81;73.84
33496;BME280;19836;55.812;37.560;2023-02-28T01:20:19;100016.78;;;-5.98;73.75
33496;BME280;19836;55.812;37.560;2023-02-28T01:23:13;100007.75;;;-6.06;74.08
33496;BME280;19836;55.812;37.560;2023-02-28T01:29:28;100009.28;;;-6.11;74.51
33496;BME280;19836;55.812;37.560;2023-02-28T01:32:57;99993.72;;;-6.10;74.36
33496;BME280;19836;55.812;37.560;2023-02-28T01:35:59;99989.97;;;-6.16;74.31
33496;BME280;19836;55.812;37.560;2023-02-28T01:38:44;99999.41;;;-6.20;74.91
33496;BME280;19836;55.812;37.560;2023-02-28T01:41:59;99987.06;;;-6.24;74.92
33496;BME280;19836;55.812;37.560;2023-02-28T01:47:42;99964.81;;;-6.16;74.93
33496;BME280;19836;55.812;37.560;2023-02-28T01:50:39;99958.81;;;-6.13;75.24
33496;BME280;19836;55.812;37.560;2023-02-28T01:53:33;99969.88;;;-6.19;74.53
33496;BME280;19836;55.812;37.560;2023-02-28T01:56:12;99951.78;;;-6.16;75.43
33496;BME280;19836;55.812;37.560;2023-02-28T01:58:52;99947.41;;;-6.17;75.04
33496;BME280;19836;55.812;37.560;2023-02-28T02:01:53;99942.81;;;-6.22;75.25
33496;BME280;19836;55.812;37.560;2023-02-28T02:04:50;99935.91;;;-6.22;75.21
33496;BME280;19836;55.812;37.560;2023-02-28T02:07:17;99944.72;;;-6.18;75.22
33496;BME280;19836;55.812;37.560;2023-02-28T02:09:45;99938.75;;;-6.16;75.57
33496;BME280;19836;55.812;37.560;2023-02-28T02:12:27;99933.81;;;-6.08;75.41
33496;BME280;19836;55.812;37.560;2023-02-28T02:21:56;99920.34;;;-5.97;75.52
33496;BME280;19836;55.812;37.560;2023-02-28T02:36:21;99910.25;;;-5.88;75.38
33496;BME280;19836;55.812;37.560;2023-02-28T02:39:29;99903.38;;;-5.86;75.28
33496;BME280;19836;55.812;37.560;2023-02-28T02:46:14;99874.50;;;-5.90;74.92
33496;BME280;19836;55.812;37.560;2023-02-28T02:52:23;99862.25;;;-5.93;74.67
33496;BME280;19836;55.812;37.560;2023-02-28T02:55:27;99862.16;;;-5.96;74.98
33496;BME280;19836;55.812;37.560;2023-02-28T02:58:11;99859.25;;;-6.03;74.34
33496;BME280;19836;55.812;37.560;2023-02-28T03:05:46;99847.94;;;-6.04;74.99
33496;BME280;19836;55.812;37.560;2023-02-28T03:08:50;99843.56;;;-6.05;74.50
33496;BME280;19836;55.812;37.560;2023-02-28T03:11:54;99838.22;;;-6.08;75.24
33496;BME280;19836;55.812;37.560;2023-02-28T03:45:01;99785.16;;;-6.10;74.16
33496;BME280;19836;55.812;37.560;2023-02-28T03:51:16;99772.56;;;-6.21;74.46
33496;BME280;19836;55.812;37.560;2023-02-28T03:54:28;99769.91;;;-6.23;74.25
33496;BME280;19836;55.812;37.560;2023-02-28T03:57:40;99755.94;;;-6.25;74.17
33496;BME280;19836;55.812;37.560;2023-02-28T04:00:29;99757.69;;;-6.24;74.33
33496;BME280;19836;55.812;37.560;2023-02-28T04:02:58;99751.63;;;-6.24;74.18
33496;BME280;19836;55.812;37.560;2023-02-28T04:27:09;99718.72;;;-6.21;74.04
33496;BME280;19836;55.812;37.560;2023-02-28T04:30:00;99714.34;;;-6.22;74.20
33496;BME280;19836;55.812;37.560;2023-02-28T04:32:34;99716.97;;;-6.20;74.18
33496;BME280;19836;55.812;37.560;2023-02-28T04:35:25;99708.19;;;-6.24;73.78
33496;BME280;19836;55.812;37.560;2023-02-28T04:38:20;99710.78;;;-6.24;73.71
33496;BME280;19836;55.812;37.560;2023-02-28T04:40:52;99693.44;;;-6.23;73.71
33496;BME280;19836;55.812;37.560;2023-02-28T04:43:22;99696.81;;;-6.26;73.41
33496;BME280;19836;55.812;37.560;2023-02-28T04:46:05;99695.16;;;-6.24;73.62
33496;BME280;19836;55.812;37.560;2023-02-28T04:48:55;99671.75;;;-6.22;73.57
33496;BME280;19836;55.812;37.560;2023-02-28T04:51:54;99669.19;;;-6.21;73.23
33496;BME280;19836;55.812;37.560;2023-02-28T04:54:50;99684.16;;;-6.15;73.16
33496;BME280;19836;55.812;37.560;2023-02-28T04:57:24;99663.28;;;-6.15;73.40
33496;BME280;19836;55.812;37.560;2023-02-28T05:00:22;99663.47;;;-6.11;73.11
33496;BME280;19836;55.812;37.560;2023-02-28T05:03:20;99646.13;;;-6.09;72.79
33496;BME280;19836;55.812;37.560;2023-02-28T05:06:21;99643.78;;;-6.01;72.49
33496;BME280;19836;55.812;37.560;2023-02-28T05:09:56;99637.78;;;-5.99;71.85
33496;BME280;19836;55.812;37.560;2023-02-28T05:12:28;99636.28;;;-5.92;72.03
33496;BME280;19836;55.812;37.560;2023-02-28T05:15:26;99638.03;;;-5.91;71.60
33496;BME280;19836;55.812;37.560;2023-02-28T05:19:00;99626.81;;;-5.89;71.21
33496;BME280;19836;55.812;37.560;2023-02-28T05:24:20;99606.97;;;-5.84;70.74
33496;BME280;19836;55.812;37.560;2023-02-28T05:27:09;99583.66;;;-5.78;70.53
33496;BME280;19836;55.812;37.560;2023-02-28T05:29:42;99586.44;;;-5.73;70.30
33496;BME280;19836;55.812;37.560;2023-02-28T05:32:18;99586.63;;;-5.68;70.41
33496;BME280;19836;55.812;37.560;2023-02-28T05:35:41;99573.69;;;-5.64;69.61
33496;BME280;19836;55.812;37.560;2023-02-28T05:38:20;99578.84;;;-5.66;68.88
33496;BME280;19836;55.812;37.560;2023-02-28T05:40:49;99565.75;;;-5.68;69.07
33496;BME280;19836;55.812;37.560;2023-02-28T05:44:09;99580.72;;;-5.62;68.59
33496;BME280;19836;55.812;37.560;2023-02-28T05:47:01;99554.63;;;-5.62;68.37
33496;BME280;19836;55.812;37.560;2023-02-28T05:49:29;99547.66;;;-5.62;68.88
33496;BME280;19836;55.812;37.560;2023-02-28T05:51:58;99539.94;;;-5.58;67.99
33496;BME280;19836;55.812;37.560;2023-02-28T05:54:31;99539.31;;;-5.50;68.14
33496;BME280;19836;55.812;37.560;2023-02-28T05:57:04;99543.63;;;-5.52;67.70
33496;BME280;19836;55.812;37.560;2023-02-28T05:59:36;99555.66;;;-5.56;67.48
33496;BME280;19836;55.812;37.560;2023-02-28T06:02:12;99547.88;;;-5.54;67.72
33496;BME280;19836;55.812;37.560;2023-02-28T06:05:10;99515.03;;;-5.47;67.70
33496;BME280;19836;55.812;37.560;2023-02-28T06:07:51;99497.69;;;-5.46;67.81
33496;BME280;19836;55.812;37.560;2023-02-28T06:10:27;99488.31;;;-5.39;67.40
33496;BME280;19836;55.812;37.560;2023-02-28T06:13:00;99506.75;;;-5.33;67.20
33496;BME280;19836;55.812;37.560;2023-02-28T06:18:36;99494.47;;;-5.06;66.81
33496;BME280;19836;55.812;37.560;2023-02-28T06:21:32;99480.91;;;-4.92;66.84
33496;BME280;19836;55.812;37.560;2023-02-28T06:24:29;99476.84;;;-4.81;66.12
33496;BME280;19836;55.812;37.560;2023-02-28T06:27:00;99476.09;;;-4.77;65.48
33496;BME280;19836;55.812;37.560;2023-02-28T06:29:32;99477.19;;;-4.67;65.04
33496;BME280;19836;55.812;37.560;2023-02-28T06:31:59;99465.50;;;-4.47;65.44
33496;BME280;19836;55.812;37.560;2023-02-28T06:34:24;99468.72;;;-4.22;64.84
33496;BME280;19836;55.812;37.560;2023-02-28T06:36:51;99459.41;;;-4.11;64.40
33496;BME280;19836;55.812;37.560;2023-02-28T06:39:17;99444.00;;;-3.97;64.29
33496;BME280;19836;55.812;37.560;2023-02-28T06:41:43;99435.66;;;-3.81;64.12
33496;BME280;19836;55.812;37.560;2023-02-28T06:44:13;99441.22;;;-3.66;63.03
33496;BME280;19836;55.812;37.560;2023-02-28T06:46:40;99408.97;;;-3.63;62.57
33496;BME280;19836;55.812;37.560;2023-02-28T06:49:08;99410.16;;;-3.48;62.41
33496;BME280;19836;55.812;37.560;2023-02-28T06:51:35;99413.84;;;-3.37;62.56
33496;BME280;19836;55.812;37.560;2023-02-28T06:54:10;99426.25;;;-3.27;62.28
33496;BME280;19836;55.812;37.560;2023-02-28T06:56:37;99396.50;;;-3.32;61.26
33496;BME280;19836;55.812;37.560;2023-02-28T06:59:03;99386.00;;;-3.32;61.54
33496;BME280;19836;55.812;37.560;2023-02-28T07:01:30;99388.78;;;-3.26;61.13
33496;BME280;19836;55.812;37.560;2023-02-28T07:03:58;99372.22;;;-3.22;61.56
33496;BME280;19836;55.812;37.560;2023-02-28T07:14:36;99356.09;;;-2.98;61.27
33496;BME280;19836;55.812;37.560;2023-02-28T07:17:02;99333.47;;;-2.93;60.92
33496;BME280;19836;55.812;37.560;2023-02-28T07:19:28;99344.06;;;-2.86;60.80
33496;BME280;19836;55.812;37.560;2023-02-28T07:21:54;99342.28;;;-2.88;61.29
33496;BME280;19836;55.812;37.560;2023-02-28T07:24:20;99332.78;;;-2.81;61.08
33496;BME280;19836;55.812;37.560;2023-02-28T07:26:46;99341.53;;;-2.80;60.86
33496;BME280;19836;55.812;37.560;2023-02-28T07:29:12;99320.66;;;-2.74;61.35
33496;BME280;19836;55.812;37.560;2023-02-28T07:31:38;99324.28;;;-2.66;60.94
33496;BME280;19836;55.812;37.560;2023-02-28T07:34:07;99312.00;;;-2.68;60.92
33496;BME280;19836;55.812;37.560;2023-02-28T07:36:33;99311.06;;;-2.72;60.93
33496;BME280;19836;55.812;37.560;2023-02-28T07:38:59;99318.16;;;-2.65;61.23
33496;BME280;19836;55.812;37.560;2023-02-28T07:41:30;99321.91;;;-2.48;61.57
33496;BME280;19836;55.812;37.560;2023-02-28T07:43:59;99308.88;;;-2.42;61.20
33496;BME280;19836;55.812;37.560;2023-02-28T07:46:26;99320.31;;;-2.37;61.06
33496;BME280;19836;55.812;37.560;2023-02-28T07:48:52;99322.97;;;-2.34;61.28
33496;BME280;19836;55.812;37.560;2023-02-28T07:51:20;99300.34;;;-2.26;61.35
33496;BME280;19836;55.812;37.560;2023-02-28T07:53:54;99304.81;;;-2.19;61.21
33496;BME280;19836;55.812;37.560;2023-02-28T07:56:26;99309.13;;;-2.24;61.22
33496;BME280;19836;55.812;37.560;2023-02-28T07:58:52;99315.16;;;-2.30;61.30
33496;BME280;19836;55.812;37.560;2023-02-28T08:01:19;99296.88;;;-2.25;61.64
33496;BME280;19836;55.812;37.560;2023-02-28T08:03:46;99292.56;;;-2.22;61.25
33496;BME280;19836;55.812;37.560;2023-02-28T08:06:22;99284.84;;;-2.08;61.57
33496;BME280;19836;55.812;37.560;2023-02-28T08:08:50;99270.09;;;-2.00;61.18
33496;BME280;19836;55.812;37.560;2023-02-28T08:11:18;99263.97;;;-1.96;61.30
33496;BME280;19836;55.812;37.560;2023-02-28T08:13:45;99258.72;;;-1.99;61.24
33496;BME280;19836;55.812;37.560;2023-02-28T08:16:12;99255.28;;;-1.92;61.34
33496;BME280;19836;55.812;37.560;2023-02-28T08:18:43;99240.59;;;-1.74;61.84
33496;BME280;19836;55.812;37.560;2023-02-28T08:21:10;99225.84;;;-1.64;61.49
33496;BME280;19836;55.812;37.560;2023-02-28T08:23:38;99222.38;;;-1.57;61.53
33496;BME280;19836;55.812;37.560;2023-02-28T08:26:04;99215.38;;;-1.58;61.29
33496;BME280;19836;55.812;37.560;2023-02-28T08:28:30;99234.59;;;-1.62;61.70
33496;BME280;19836;55.812;37.560;2023-02-28T08:30:57;99227.63;;;-1.59;61.69
33496;BME280;19836;55.812;37.560;2023-02-28T08:33:26;99259.25;;;-1.48;61.69
33496;BME280;19836;55.812;37.560;2023-02-28T08:36:18;99285.59;;;-1.39;61.62
33496;BME280;19836;55.812;37.560;2023-02-28T08:38:45;99287.25;;;-1.47;61.38
33496;BME280;19836;55.812;37.560;2023-02-28T08:41:39;99285.47;;;-1.54;61.85
33496;BME280;19836;55.812;37.560;2023-02-28T08:44:05;99281.91;;;-1.56;61.85
33496;BME280;19836;55.812;37.560;2023-02-28T08:46:32;99288.97;;;-1.55;62.30
33496;BME280;19836;55.812;37.560;2023-02-28T08:48:58;99268.81;;;-1.55;62.47
33496;BME280;19836;55.812;37.560;2023-02-28T08:51:26;99270.56;;;-1.54;62.80
33496;BME280;19836;55.812;37.560;2023-02-28T08:54:11;99253.13;;;-1.50;62.48
33496;BME280;19836;55.812;37.560;2023-02-28T08:56:49;99252.31;;;-1.40;62.83
33496;BME280;19836;55.812;37.560;2023-02-28T09:06:28;99236.47;;;-1.49;62.84
33496;BME280;19836;55.812;37.560;2023-02-28T09:09:19;99217.28;;;-1.42;63.22
33496;BME280;19836;55.812;37.560;2023-02-28T09:11:56;99215.63;;;-1.30;63.24
33496;BME280;19836;55.812;37.560;2023-02-28T09:14:22;99216.59;;;-1.20;63.16
33496;BME280;19836;55.812;37.560;2023-02-28T09:16:48;99207.00;;;-1.12;63.18
33496;BME280;19836;55.812;37.560;2023-02-28T09:19:15;99206.19;;;-1.05;63.13
33496;BME280;19836;55.812;37.560;2023-02-28T09:21:41;99193.13;;;-0.93;62.98
33496;BME280;19836;55.812;37.560;2023-02-28T09:24:08;99203.66;;;-0.87;63.14
33496;BME280;19836;55.812;37.560;2023-02-28T09:26:34;99214.19;;;-0.87;63.22
33496;BME280;19836;55.812;37.560;2023-02-28T09:29:02;99225.59;;;-0.84;63.09
33496;BME280;19836;55.812;37.560;2023-02-28T09:31:29;99209.81;;;-0.85;62.80
33496;BME280;19836;55.812;37.560;2023-02-28T09:33:57;99215.06;;;-0.84;62.87
33496;BME280;19836;55.812;37.560;2023-02-28T09:36:25;99230.84;;;-0.84;63.09
33496;BME280;19836;55.812;37.560;2023-02-28T09:38:55;99212.41;;;-0.88;62.93
33496;BME280;19836;55.812;37.560;2023-02-28T09:41:24;99199.28;;;-0.88;63.04
33496;BME280;19836;55.812;37.560;2023-02-28T09:43:59;99180.00;;;-0.86;63.15
33496;BME280;19836;55.812;37.560;2023-02-28T09:46:38;99180.91;;;-0.85;63.10
33496;BME280;19836;55.812;37.560;2023-02-28T09:49:18;99181.81;;;-0.76;63.27
33496;BME280;19836;55.812;37.560;2023-02-28T09:54:22;99167.75;;;-0.85;63.17
33496;BME280;19836;55.812;37.560;2023-02-28T09:57:01;99177.38;;;-0.87;63.17
33496;BME280;19836;55.812;37.560;2023-02-28T09:59:43;99162.50;;;-0.87;63.77
33496;BME280;19836;55.812;37.560;2023-02-28T10:05:22;99142.38;;;-0.74;63.42
33496;BME280;19836;55.812;37.560;2023-02-28T10:10:29;99134.47;;;-0.77;63.66
33496;BME280;19836;55.812;37.560;2023-02-28T10:13:00;99116.94;;;-0.80;63.81
33496;BME280;19836;55.812;37.560;2023-02-28T10:15:30;99122.22;;;-0.74;63.81
33496;BME280;19836;55.812;37.560;2023-02-28T10:18:02;99102.09;;;-0.67;64.03
33496;BME280;19836;55.812;37.560;2023-02-28T10:20:33;99123.13;;;-0.70;64.28
33496;BME280;19836;55.812;37.560;2023-02-28T10:23:21;99124.88;;;-0.66;64.07
33496;BME280;19836;55.812;37.560;2023-02-28T10:25:54;99126.63;;;-0.73;64.45
33496;BME280;19836;55.812;37.560;2023-02-28T10:28:20;99116.06;;;-0.77;64.31
33496;BME280;19836;55.812;37.560;2023-02-28T10:30:49;99116.06;;;-0.77;64.69
33496;BME280;19836;55.812;37.560;2023-02-28T10:35:47;99102.09;;;-0.67;64.41
33496;BME280;19836;55.812;37.560;2023-02-28T10:38:21;99105.56;;;-0.76;64.57
33496;BME280;19836;55.812;37.560;2023-02-28T10:40:47;99110.81;;;-0.71;64.56
33496;BME280;19836;55.812;37.560;2023-02-28T10:45:55;99096.84;;;-0.61;65.09
33496;BME280;19836;55.812;37.560;2023-02-28T11:04:00;99057.41;;;-0.60;65.64
33496;BME280;19836;55.812;37.560;2023-02-28T11:06:32;99044.28;;;-0.55;65.64
33496;BME280;19836;55.812;37.560;2023-02-28T11:09:01;99054.81;;;-0.55;65.47
33496;BME280;19836;55.812;37.560;2023-02-28T11:11:30;99051.28;;;-0.51;65.85
33496;BME280;19836;55.812;37.560;2023-02-28T11:14:22;99046.03;;;-0.54;65.92
33496;BME280;19836;55.812;37.560;2023-02-28T11:16:50;99042.53;;;-0.52;65.99
33496;BME280;19836;55.812;37.560;2023-02-28T11:19:26;99045.16;;;-0.46;66.02
33496;BME280;19836;55.812;37.560;2023-02-28T11:22:01;99046.06;;;-0.39;65.87
33496;BME280;19836;55.812;37.560;2023-02-28T11:24:29;99046.91;;;-0.39;65.95
33496;BME280;19836;55.812;37.560;2023-02-28T11:26:57;99041.69;;;-0.32;66.27
33496;BME280;19836;55.812;37.560;2023-02-28T11:32:14;99039.94;;;-0.16;66.09
33496;BME280;19836;55.812;37.560;2023-02-28T11:34:42;99040.84;;;-0.09;66.17
33496;BME280;19836;55.812;37.560;2023-02-28T11:37:15;99032.03;;;-0.10;66.57
33496;BME280;19836;55.812;37.560;2023-02-28T11:39:43;99011.84;;;-0.12;66.52
33496;BME280;19836;55.812;37.560;2023-02-28T11:42:40;99020.66;;;-0.03;66.47
33496;BME280;19836;55.812;37.560;2023-02-28T11:45:18;99018.00;;;0.02;66.71
33496;BME280;19836;55.812;37.560;2023-02-28T11:50:45;99021.53;;;-0.20;67.65
33496;BME280;19836;55.812;37.560;2023-02-28T11:56:21;99008.34;;;-0.40;69.06
33496;BME280;19836;55.812;37.560;2023-02-28T11:58:59;99007.47;;;-0.37;69.34
33496;BME280;19836;55.812;37.560;2023-02-28T12:01:36;99003.09;;;-0.37;70.01
33496;BME280;19836;55.812;37.560;2023-02-28T12:10:25;98982.03;;;-0.25;70.46
33496;BME280;19836;55.812;37.560;2023-02-28T12:13:10;98992.56;;;-0.31;70.54
33496;BME280;19836;55.812;37.560;2023-02-28T12:21:31;98989.03;;;-0.49;71.87
33496;BME280;19836;55.812;37.560;2023-02-28T12:26:57;98992.56;;;-0.52;72.28
33496;BME280;19836;55.812;37.560;2023-02-28T12:29:38;98978.53;;;-0.49;72.61
33496;BME280;19836;55.812;37.560;2023-02-28T12:35:01;98970.63;;;-0.37;73.10
33496;BME280;19836;55.812;37.560;2023-02-28T12:37:42;98972.38;;;-0.33;72.69
33496;BME280;19836;55.812;37.560;2023-02-28T12:40:21;98960.09;;;-0.37;73.11
33496;BME280;19836;55.812;37.560;2023-02-28T12:42:54;98972.38;;;-0.36;72.94
33496;BME280;19836;55.812;37.560;2023-02-28T12:45:24;98952.22;;;-0.34;73.34
33496;BME280;19836;55.812;37.560;2023-02-28T12:48:04;98970.66;;;-0.32;72.83
33496;BME280;19836;55.812;37.560;2023-02-28T12:50:32;98939.06;;;-0.34;73.35
33496;BME280;19836;55.812;37.560;2023-02-28T12:55:54;98908.34;;;-0.34;73.82
33496;BME280;19836;55.812;37.560;2023-02-28T12:58:33;98913.59;;;-0.34;73.55
33496;BME280;19836;55.812;37.560;2023-02-28T13:01:14;98916.28;;;-0.35;73.28
33496;BME280;19836;55.812;37.560;2023-02-28T13:09:18;98910.13;;;-0.34;73.88
33496;BME280;19836;55.812;37.560;2023-02-28T13:11:49;98898.69;;;-0.36;73.60
33496;BME280;19836;55.812;37.560;2023-02-28T13:19:31;98911.84;;;-0.44;74.07
33496;BME280;19836;55.812;37.560;2023-02-28T13:21:58;98914.50;;;-0.42;74.17
33496;BME280;19836;55.812;37.560;2023-02-28T13:29:35;98903.97;;;-0.30;74.80
33496;BME280;19836;55.812;37.560;2023-02-28T13:34:39;98893.44;;;-0.24;74.29
33496;BME280;19836;55.812;37.560;2023-02-28T13:47:44;98862.72;;;-0.22;74.37
33496;BME280;19836;55.812;37.560;2023-02-28T13:53:21;98854.81;;;-0.16;74.58
33496;BME280;19836;55.812;37.560;2023-02-28T13:56:10;98861.84;;;-0.15;74.69
33496;BME280;19836;55.812;37.560;2023-02-28T13:59:12;98872.38;;;-0.17;74.22
33496;BME280;19836;55.812;37.560;2023-02-28T14:01:53;98860.97;;;-0.14;74.72
33496;BME280;19836;55.812;37.560;2023-02-28T14:06:57;98870.59;;;-0.07;74.51
33496;BME280;19836;55.812;37.560;2023-02-28T14:11:55;98865.34;;;-0.04;74.83
33496;BME280;19836;55.812;37.560;2023-02-28T14:17:02;98854.81;;;-0.04;74.51
33496;BME280;19836;55.812;37.560;2023-02-28T14:19:31;98857.44;;;-0.07;74.61
33496;BME280;19836;55.812;37.560;2023-02-28T14:25:29;98844.25;;;-0.09;74.60
33496;BME280;19836;55.812;37.560;2023-02-28T14:31:16;98853.06;;;-0.05;74.90
33496;BME280;19836;55.812;37.560;2023-02-28T14:33:55;98835.47;;;0.03;75.32
33496;BME280;19836;55.812;37.560;2023-02-28T14:39:16;98834.59;;;-0.02;75.42
33496;BME280;19836;55.812;37.560;2023-02-28T14:41:51;98826.72;;;-0.05;75.86
33496;BME280;19836;55.812;37.560;2023-02-28T14:44:42;98818.84;;;-0.08;76.24
33496;BME280;19836;55.812;37.560;2023-02-28T14:47:27;98814.44;;;-0.06;76.28
33496;BME280;19836;55.812;37.560;2023-02-28T14:50:04;98818.84;;;-0.07;76.30
33496;BME280;19836;55.812;37.560;2023-02-28T14:52:31;98829.38;;;-0.07;76.20
33496;BME280;19836;55.812;37.560;2023-02-28T14:55:11;98817.94;;;-0.04;76.32
33496;BME280;19836;55.812;37.560;2023-02-28T14:57:51;98811.78;;;-0.05;76.76
33496;BME280;19836;55.812;37.560;2023-02-28T15:00:29;98818.84;;;-0.05;76.45
33496;BME280;19836;55.812;37.560;2023-02-28T15:02:56;98802.13;;;-0.01;76.94
33496;BME280;19836;55.812;37.560;2023-02-28T15:05:34;98834.59;;;0.01;76.77
33496;BME280;19836;55.812;37.560;2023-02-28T15:08:06;98809.13;;;0.01;77.09
33496;BME280;19836;55.812;37.560;2023-02-28T15:10:35;98812.66;;;0.03;76.98
33496;BME280;19836;55.812;37.560;2023-02-28T15:13:05;98821.41;;;0.05;77.22
33496;BME280;19836;55.812;37.560;2023-02-28T15:15:54;98815.22;;;0.12;77.42
33496;BME280;19836;55.812;37.560;2023-02-28T15:20:53;98814.38;;;0.09;77.70
33496;BME280;19836;55.812;37.560;2023-02-28T15:23:21;98802.09;;;0.11;77.78
33496;BME280;19836;55.812;37.560;2023-02-28T15:25:48;98809.97;;;0.14;77.61
33496;BME280;19836;55.812;37.560;2023-02-28T15:28:19;98802.06;;;0.17;77.17
33496;BME280;19836;55.812;37.560;2023-02-28T15:31:01;98802.03;;;0.21;77.85
33496;BME280;19836;55.812;37.560;2023-02-28T15:33:32;98801.13;;;0.24;77.38
33496;BME280;19836;55.812;37.560;2023-02-28T15:36:16;98811.66;;;0.25;77.84
33496;BME280;19836;55.812;37.560;2023-02-28T15:38:43;98798.50;;;0.25;77.56
33496;BME280;19836;55.812;37.560;2023-02-28T15:41:31;98798.47;;;0.30;77.56
33496;BME280;19836;55.812;37.560;2023-02-28T15:47:04;98791.44;;;0.32;77.60
33496;BME280;19836;55.812;37.560;2023-02-28T15:49:44;98789.72;;;0.31;77.70
33496;BME280;19836;55.812;37.560;2023-02-28T15:52:16;98783.56;;;0.33;77.74
33496;BME280;19836;55.812;37.560;2023-02-28T15:54:43;98787.94;;;0.36;77.78
33496;BME280;19836;55.812;37.560;2023-02-28T15:57:24;98794.06;;;0.36;77.58
33496;BME280;19836;55.812;37.560;2023-02-28T15:59:55;98786.16;;;0.41;77.72
33496;BME280;19836;55.812;37.560;2023-02-28T16:02:30;98778.22;;;0.42;77.91
33496;BME280;19836;55.812;37.560;2023-02-28T16:07:33;98780.84;;;0.47;77.46
33496;BME280;19836;55.812;37.560;2023-02-28T16:10:00;98778.19;;;0.48;77.66
33496;BME280;19836;55.812;37.560;2023-02-28T16:12:31;98777.31;;;0.51;78.03
33496;BME280;19836;55.812;37.560;2023-02-28T16:15:01;98768.50;;;0.52;77.69
33496;BME280;19836;55.812;37.560;2023-02-28T16:17:32;98762.34;;;0.51;78.03
33496;BME280;19836;55.812;37.560;2023-02-28T16:19:59;98760.56;;;0.55;77.91
33496;BME280;19836;55.812;37.560;2023-02-28T16:22:25;98754.41;;;0.59;77.93
33496;BME280;19836;55.812;37.560;2023-02-28T16:24:52;98765.81;;;0.59;78.13
33496;BME280;19836;55.812;37.560;2023-02-28T16:27:27;98764.94;;;0.62;77.65
33496;BME280;19836;55.812;37.560;2023-02-28T16:29:54;98758.75;;;0.63;77.72
33496;BME280;19836;55.812;37.560;2023-02-28T16:32:20;98765.78;;;0.67;78.15
33496;BME280;19836;55.812;37.560;2023-02-28T16:34:46;98767.50;;;0.68;77.94
33496;BME280;19836;55.812;37.560;2023-02-28T16:37:14;98764.00;;;0.67;78.11
33496;BME280;19836;55.812;37.560;2023-02-28T16:39:42;98766.63;;;0.67;78.15
33496;BME280;19836;55.812;37.560;2023-02-28T16:42:21;98762.25;;;0.68;78.04
33496;BME280;19836;55.812;37.560;2023-02-28T16:44:48;98766.63;;;0.67;78.35
33496;BME280;19836;55.812;37.560;2023-02-28T16:47:14;98752.59;;;0.67;78.24
33496;BME280;19836;55.812;37.560;2023-02-28T16:49:40;98749.06;;;0.65;78.51
33496;BME280;19836;55.812;37.560;2023-02-28T16:52:09;98751.72;;;0.65;78.91
33496;BME280;19836;55.812;37.560;2023-02-28T16:54:36;98763.19;;;0.61;78.94
33496;BME280;19836;55.812;37.560;2023-02-28T16:57:02;98753.50;;;0.60;79.07
33496;BME280;19836;55.812;37.560;2023-02-28T16:59:28;98746.50;;;0.59;79.19
33496;BME280;19836;55.812;37.560;2023-02-28T17:01:55;98747.44;;;0.52;79.78
33496;BME280;19836;55.812;37.560;2023-02-28T17:04:25;98745.69;;;0.48;80.10
33496;BME280;19836;55.812;37.560;2023-02-28T17:06:51;98748.34;;;0.45;80.46
33496;BME280;19836;55.812;37.560;2023-02-28T17:09:19;98751.91;;;0.39;80.69
33496;BME280;19836;55.812;37.560;2023-02-28T17:11:45;98744.00;;;0.35;80.74
33496;BME280;19836;55.812;37.560;2023-02-28T17:14:12;98744.94;;;0.29;81.32
33496;BME280;19836;55.812;37.560;2023-02-28T17:16:39;98761.63;;;0.27;81.45
33496;BME280;19836;55.812;37.560;2023-02-28T17:19:13;98756.38;;;0.27;81.29
33496;BME280;19836;55.812;37.560;2023-02-28T17:21:41;98761.59;;;0.33;81.31
33496;BME280;19836;55.812;37.560;2023-02-28T17:24:08;98745.78;;;0.31;81.71
33496;BME280;19836;55.812;37.560;2023-02-28T17:26:34;98751.06;;;0.31;81.54
33496;BME280;19836;55.812;37.560;2023-02-28T17:29:00;98759.84;;;0.32;81.67
33496;BME280;19836;55.812;37.560;2023-02-28T17:31:27;98752.78;;;0.37;81.92
33496;BME280;19836;55.812;37.560;2023-02-28T17:33:55;98751.84;;;0.45;81.97
33496;BME280;19836;55.812;37.560;2023-02-28T17:36:26;98750.94;;;0.51;81.38
33496;BME280;19836;55.812;37.560;2023-02-28T17:38:54;98753.53;;;0.57;81.53
33496;BME280;19836;55.812;37.560;2023-02-28T17:41:24;98772.81;;;0.63;81.06
33496;BME280;19836;55.812;37.560;2023-02-28T17:43:52;98806.16;;;0.67;81.11
33496;BME280;19836;55.812;37.560;2023-02-28T17:46:20;98800.97;;;0.57;80.80
33496;BME280;19836;55.812;37.560;2023-02-28T17:48:48;98801.94;;;0.39;80.44
33496;BME280;19836;55.812;37.560;2023-02-28T17:51:21;98805.50;;;0.25;80.14
33496;BME280;19836;55.812;37.560;2023-02-28T17:53:48;98810.84;;;0.13;80.15
33496;BME280;19836;55.812;37.560;2023-02-28T17:56:24;98805.63;;;-0.04;79.71
33496;BME280;19836;55.812;37.560;2023-02-28T17:58:53;98818.81;;;-0.11;79.60
33496;BME280;19836;55.812;37.560;2023-02-28T18:01:20;98804.84;;;-0.19;79.27
33496;BME280;19836;55.812;37.560;2023-02-28T18:03:48;98804.84;;;-0.25;79.69
33496;BME280;19836;55.812;37.560;2023-02-28T18:06:19;98806.59;;;-0.29;79.38
33496;BME280;19836;55.812;37.560;2023-02-28T18:08:45;98802.25;;;-0.34;79.15
33496;BME280;19836;55.812;37.560;2023-02-28T18:11:12;98798.75;;;-0.42;79.08